sensor_id;sensor_type;location;lat;lon;timestamp;pressure;altitude;pressure_sealevel;temperature;humidity
75008;BME280;63554;48.940;12.050;2023-03-14T00:00:33;95781.63;;;9.33;83.15
75008;BME280;63554;48.940;12.050;2023-03-14T00:04:36;95770.19;;;9.26;83.27
75008;BME280;63554;48.940;12.050;2023-03-14T00:08:39;95768.00;;;9.23;83.64
75008;BME280;63554;48.940;12.050;2023-03-14T00:12:43;95759.84;;;9.18;83.89
75008;BME280;63554;48.940;12.050;2023-03-14T00:16:47;95763.84;;;9.15;84.03
75008;BME280;63554;48.940;12.050;2023-03-14T00:20:50;95750.22;;;9.05;84.65
75008;BME280;63554;48.940;12.050;2023-03-14T00:24:53;95749.84;;;8.96;85.09
75008;BME280;63554;48.940;12.050;2023-03-14T00:28:55;95747.25;;;8.84;85.86
75008;BME280;63554;48.940;12.050;2023-03-14T00:32:59;95785.34;;;8.71;86.39
75008;BME280;63554;48.940;12.050;2023-03-14T00:37:02;95802.34;;;8.71;86.79
75008;BME280;63554;48.940;12.050;2023-03-14T00:41:06;95813.66;;;8.68;87.15
75008;BME280;63554;48.940;12.050;2023-03-14T00:45:10;95813.88;;;8.67;87.46
75008;BME280;63554;48.940;12.050;2023-03-14T00:49:14;95795.56;;;8.69;87.62
75008;BME280;63554;48.940;12.050;2023-03-14T00:53:17;95815.34;;;8.75;87.68
75008;BME280;63554;48.940;12.050;2023-03-14T00:57:20;95837.56;;;8.82;88.14
75008;BME280;63554;48.940;12.050;2023-03-14T01:01:23;95831.94;;;8.83;87.90
75008;BME280;63554;48.940;12.050;2023-03-14T01:05:27;95814.75;;;8.89;87.64
75008;BME280;63554;48.940;12.050;2023-03-14T01:09:30;95827.84;;;8.98;87.36
75008;BME280;63554;48.940;12.050;2023-03-14T01:13:33;95810.25;;;8.95;87.09
75008;BME280;63554;48.940;12.050;2023-03-14T01:17:36;95801.69;;;8.98;86.89
75008;BME280;63554;48.940;12.050;2023-03-14T01:21:42;95808.44;;;9.01;87.06
75008;BME280;63554;48.940;12.050;2023-03-14T01:25:44;95811.38;;;8.99;87.25
75008;BME280;63554;48.940;12.050;2023-03-14T01:29:47;95790.06;;;8.98;87.43
75008;BME280;63554;48.940;12.050;2023-03-14T01:33:50;95812.94;;;8.95;87.71
75008;BME280;63554;48.940;12.050;2023-03-14T01:37:54;95810.25;;;8.95;87.44
75008;BME280;63554;48.940;12.050;2023-03-14T01:41:57;95824.56;;;8.96;87.20
75008;BME280;63554;48.940;12.050;2023-03-14T01:46:19;95827.25;;;8.96;86.44
75008;BME280;63554;48.940;12.050;2023-03-14T01:50:23;95828.09;;;8.96;86.29
75008;BME280;63554;48.940;12.050;2023-03-14T01:54:29;95817.53;;;8.95;86.15
75008;BME280;63554;48.940;12.050;2023-03-14T01:58:34;95804.47;;;8.86;86.28
75008;BME280;63554;48.940;12.050;2023-03-14T02:02:37;95808.41;;;8.79;86.61
75008;BME280;63554;48.940;12.050;2023-03-14T02:06:49;95799.91;;;8.70;86.72
75008;BME280;63554;48.940;12.050;2023-03-14T02:10:54;95788.72;;;8.61;87.54
75008;BME280;63554;48.940;12.050;2023-03-14T02:14:57;95772.13;;;8.52;87.70
75008;BME280;63554;48.940;12.050;2023-03-14T02:18:59;95769.84;;;8.44;87.74
75008;BME280;63554;48.940;12.050;2023-03-14T02:23:02;95757.69;;;8.42;87.53
75008;BME280;63554;48.940;12.050;2023-03-14T02:27:09;95758.63;;;8.36;87.36
75008;BME280;63554;48.940;12.050;2023-03-14T02:31:12;95739.44;;;8.32;87.12
75008;BME280;63554;48.940;12.050;2023-03-14T02:35:19;95729.88;;;8.24;86.85
75008;BME280;63554;48.940;12.050;2023-03-14T02:39:29;95692.91;;;8.20;87.22
75008;BME280;63554;48.940;12.050;2023-03-14T02:43:35;95716.00;;;8.16;87.96
75008;BME280;63554;48.940;12.050;2023-03-14T02:47:41;95727.72;;;8.09;88.17
75008;BME280;63554;48.940;12.050;2023-03-14T02:51:45;95699.34;;;8.02;88.66
75008;BME280;63554;48.940;12.050;2023-03-14T02:55:49;95630.84;;;7.98;88.88
75008;BME280;63554;48.940;12.050;2023-03-14T02:59:53;95621.31;;;7.90;89.02
75008;BME280;63554;48.940;12.050;2023-03-14T03:03:56;95684.53;;;7.87;89.25
75008;BME280;63554;48.940;12.050;2023-03-14T03:07:59;95703.06;;;7.84;89.36
75008;BME280;63554;48.940;12.050;2023-03-14T03:12:02;95729.41;;;7.82;89.80
75008;BME280;63554;48.940;12.050;2023-03-14T03:16:07;95722.56;;;7.74;89.97
75008;BME280;63554;48.940;12.050;2023-03-14T03:20:11;95728.78;;;7.75;90.33
75008;BME280;63554;48.940;12.050;2023-03-14T03:24:14;95737.91;;;7.73;90.14
75008;BME280;63554;48.940;12.050;2023-03-14T03:28:17;95743.22;;;7.68;90.36
75008;BME280;63554;48.940;12.050;2023-03-14T03:32:21;95732.91;;;7.65;90.45
75008;BME280;63554;48.940;12.050;2023-03-14T03:36:25;95727.53;;;7.65;90.35
75008;BME280;63554;48.940;12.050;2023-03-14T03:40:28;95727.91;;;7.57;90.72
75008;BME280;63554;48.940;12.050;2023-03-14T03:44:31;95731.19;;;7.59;90.53
75008;BME280;63554;48.940;12.050;2023-03-14T03:48:35;95718.78;;;7.58;90.77
75008;BME280;63554;48.940;12.050;2023-03-14T03:52:38;95713.66;;;7.57;90.58
75008;BME280;63554;48.940;12.050;2023-03-14T03:56:41;95711.53;;;7.59;90.66
75008;BME280;63554;48.940;12.050;2023-03-14T04:00:43;95715.50;;;7.56;90.52
75008;BME280;63554;48.940;12.050;2023-03-14T04:04:49;95706.84;;;7.54;90.77
75008;BME280;63554;48.940;12.050;2023-03-14T04:08:53;95701.13;;;7.50;90.70
75008;BME280;63554;48.940;12.050;2023-03-14T04:12:55;95700.91;;;7.52;90.63
75008;BME280;63554;48.940;12.050;2023-03-14T04:16:58;95681.13;;;7.46;90.57
75008;BME280;63554;48.940;12.050;2023-03-14T04:21:02;95684.41;;;7.48;90.69
75008;BME280;63554;48.940;12.050;2023-03-14T04:25:06;95673.91;;;7.47;90.69
75008;BME280;63554;48.940;12.050;2023-03-14T04:29:09;95661.03;;;7.49;90.68
75008;BME280;63554;48.940;12.050;2023-03-14T04:33:13;95657.50;;;7.48;90.51
75008;BME280;63554;48.940;12.050;2023-03-14T04:37:20;95649.69;;;7.47;90.49
75008;BME280;63554;48.940;12.050;2023-03-14T04:41:22;95659.94;;;7.50;90.25
75008;BME280;63554;48.940;12.050;2023-03-14T04:45:26;95658.91;;;7.51;90.16
75008;BME280;63554;48.940;12.050;2023-03-14T04:49:28;95642.41;;;7.47;90.18
75008;BME280;63554;48.940;12.050;2023-03-14T04:53:33;95646.50;;;7.50;90.15
75008;BME280;63554;48.940;12.050;2023-03-14T04:57:37;95660.53;;;7.52;90.07
75008;BME280;63554;48.940;12.050;2023-03-14T05:01:40;95643.22;;;7.48;89.91
75008;BME280;63554;48.940;12.050;2023-03-14T05:05:43;95646.50;;;7.50;89.75
75008;BME280;63554;48.940;12.050;2023-03-14T05:09:48;95656.78;;;7.53;89.15
75008;BME280;63554;48.940;12.050;2023-03-14T05:13:51;95629.59;;;7.55;88.71
75008;BME280;63554;48.940;12.050;2023-03-14T05:17:54;95629.59;;;7.55;88.79
75008;BME280;63554;48.940;12.050;2023-03-14T05:21:56;95639.56;;;7.54;88.45
75008;BME280;63554;48.940;12.050;2023-03-14T05:26:00;95636.47;;;7.62;87.89
75008;BME280;63554;48.940;12.050;2023-03-14T05:30:04;95647.56;;;7.66;87.67
75008;BME280;63554;48.940;12.050;2023-03-14T05:34:07;95634.34;;;7.64;87.35
75008;BME280;63554;48.940;12.050;2023-03-14T05:38:10;95631.75;;;7.69;87.21
75008;BME280;63554;48.940;12.050;2023-03-14T05:42:14;95625.88;;;7.72;86.88
75008;BME280;63554;48.940;12.050;2023-03-14T05:46:17;95619.09;;;7.70;86.73
75008;BME280;63554;48.940;12.050;2023-03-14T05:50:20;95616.41;;;7.70;86.63
75008;BME280;63554;48.940;12.050;2023-03-14T05:54:23;95628.47;;;7.67;86.60
75008;BME280;63554;48.940;12.050;2023-03-14T05:58:27;95628.72;;;7.66;86.88
75008;BME280;63554;48.940;12.050;2023-03-14T06:02:30;95628.38;;;7.62;86.50
75008;BME280;63554;48.940;12.050;2023-03-14T06:06:33;95620.88;;;7.64;85.87
75008;BME280;63554;48.940;12.050;2023-03-14T06:10:36;95619.59;;;7.67;86.09
75008;BME280;63554;48.940;12.050;2023-03-14T06:14:40;95626.03;;;7.66;85.60
75008;BME280;63554;48.940;12.050;2023-03-14T06:18:43;95627.16;;;7.70;85.19
75008;BME280;63554;48.940;12.050;2023-03-14T06:22:48;95630.44;;;7.72;84.96
75008;BME280;63554;48.940;12.050;2023-03-14T06:26:51;95638.63;;;7.94;85.36
75008;BME280;63554;48.940;12.050;2023-03-14T06:30:55;95627.28;;;7.92;84.43
75008;BME280;63554;48.940;12.050;2023-03-14T06:34:57;95631.81;;;7.91;84.80
75008;BME280;63554;48.940;12.050;2023-03-14T06:39:02;95626.13;;;7.88;83.91
75008;BME280;63554;48.940;12.050;2023-03-14T06:43:05;95622.84;;;7.86;82.89
75008;BME280;63554;48.940;12.050;2023-03-14T06:47:09;95617.78;;;7.89;82.93
75008;BME280;63554;48.940;12.050;2023-03-14T06:51:12;95622.69;;;7.92;82.47
75008;BME280;63554;48.940;12.050;2023-03-14T06:55:15;95623.75;;;7.91;82.47
75008;BME280;63554;48.940;12.050;2023-03-14T06:59:18;95623.25;;;7.95;81.64
75008;BME280;63554;48.940;12.050;2023-03-14T07:03:22;95621.63;;;7.93;82.07
75008;BME280;63554;48.940;12.050;2023-03-14T07:07:25;95621.31;;;7.90;81.92
75008;BME280;63554;48.940;12.050;2023-03-14T07:11:27;95614.03;;;7.90;82.20
75008;BME280;63554;48.940;12.050;2023-03-14T07:15:30;95618.34;;;7.91;82.33
75008;BME280;63554;48.940;12.050;2023-03-14T07:19:34;95625.38;;;7.92;81.97
75008;BME280;63554;48.940;12.050;2023-03-14T07:23:37;95624.41;;;7.99;82.08
75008;BME280;63554;48.940;12.050;2023-03-14T07:27:43;95625.44;;;7.98;81.29
75008;BME280;63554;48.940;12.050;2023-03-14T07:31:45;95634.13;;;8.00;81.18
75008;BME280;63554;48.940;12.050;2023-03-14T07:35:50;95639.00;;;8.03;80.90
75008;BME280;63554;48.940;12.050;2023-03-14T07:39:53;95637.97;;;8.04;80.85
75008;BME280;63554;48.940;12.050;2023-03-14T07:43:55;95655.16;;;8.03;80.27
75008;BME280;63554;48.940;12.050;2023-03-14T07:47:58;95653.38;;;8.08;80.78
75008;BME280;63554;48.940;12.050;2023-03-14T07:52:02;95662.34;;;8.14;80.01
75008;BME280;63554;48.940;12.050;2023-03-14T07:56:05;95669.13;;;8.17;80.27
75008;BME280;63554;48.940;12.050;2023-03-14T08:00:10;95665.38;;;8.18;80.04
75008;BME280;63554;48.940;12.050;2023-03-14T08:04:16;95670.75;;;8.18;79.70
75008;BME280;63554;48.940;12.050;2023-03-14T08:08:20;95663.59;;;8.23;78.85
75008;BME280;63554;48.940;12.050;2023-03-14T08:12:22;95661.84;;;8.34;79.01
75008;BME280;63554;48.940;12.050;2023-03-14T08:16:25;95655.81;;;8.44;78.74
75008;BME280;63554;48.940;12.050;2023-03-14T08:20:29;95655.06;;;8.48;77.87
75008;BME280;63554;48.940;12.050;2023-03-14T08:24:34;95654.09;;;8.55;77.89
75008;BME280;63554;48.940;12.050;2023-03-14T08:28:36;95645.00;;;8.61;76.82
75008;BME280;63554;48.940;12.050;2023-03-14T08:32:39;95646.44;;;8.68;76.43
75008;BME280;63554;48.940;12.050;2023-03-14T08:36:42;95634.41;;;8.76;76.27
75008;BME280;63554;48.940;12.050;2023-03-14T08:40:47;95631.31;;;8.89;74.74
75008;BME280;63554;48.940;12.050;2023-03-14T08:44:50;95639.47;;;8.95;74.14
75008;BME280;63554;48.940;12.050;2023-03-14T08:48:53;95637.66;;;9.00;73.45
75008;BME280;63554;48.940;12.050;2023-03-14T08:52:56;95621.25;;;9.07;73.94
75008;BME280;63554;48.940;12.050;2023-03-14T08:57:02;95625.94;;;9.17;72.70
75008;BME280;63554;48.940;12.050;2023-03-14T09:01:08;95621.75;;;9.26;72.20
75008;BME280;63554;48.940;12.050;2023-03-14T09:05:12;95625.31;;;9.32;72.39
75008;BME280;63554;48.940;12.050;2023-03-14T09:09:15;95612.31;;;9.28;72.01
75008;BME280;63554;48.940;12.050;2023-03-14T09:13:20;95619.44;;;9.40;71.71
75008;BME280;63554;48.940;12.050;2023-03-14T09:17:23;95618.47;;;9.51;71.42
75008;BME280;63554;48.940;12.050;2023-03-14T09:21:26;95638.03;;;9.63;71.47
75008;BME280;63554;48.940;12.050;2023-03-14T09:25:29;95639.41;;;9.66;70.73
75008;BME280;63554;48.940;12.050;2023-03-14T09:29:33;95643.19;;;9.65;70.81
75008;BME280;63554;48.940;12.050;2023-03-14T09:33:37;95632.47;;;9.75;70.12
75008;BME280;63554;48.940;12.050;2023-03-14T09:37:41;95634.38;;;9.80;69.90
75008;BME280;63554;48.940;12.050;2023-03-14T09:41:45;95633.09;;;9.87;69.42
75008;BME280;63554;48.940;12.050;2023-03-14T09:45:50;95637.56;;;10.04;68.95
75008;BME280;63554;48.940;12.050;2023-03-14T09:49:54;95633.53;;;10.06;67.76
75008;BME280;63554;48.940;12.050;2023-03-14T09:53:58;95619.81;;;10.18;68.21
75008;BME280;63554;48.940;12.050;2023-03-14T09:58:04;95627.16;;;10.23;66.46
75008;BME280;63554;48.940;12.050;2023-03-14T10:02:18;95619.41;;;10.32;66.37
75008;BME280;63554;48.940;12.050;2023-03-14T10:06:27;95612.78;;;10.55;65.95
75008;BME280;63554;48.940;12.050;2023-03-14T10:10:33;95609.00;;;10.56;66.17
75008;BME280;63554;48.940;12.050;2023-03-14T10:14:37;95605.28;;;10.72;65.20
75008;BME280;63554;48.940;12.050;2023-03-14T10:18:45;95588.69;;;11.32;63.88
75008;BME280;63554;48.940;12.050;2023-03-14T10:22:50;95594.13;;;11.52;62.08
75008;BME280;63554;48.940;12.050;2023-03-14T10:26:55;95590.63;;;11.82;60.87
75008;BME280;63554;48.940;12.050;2023-03-14T10:30:59;95589.00;;;11.66;61.49
75008;BME280;63554;48.940;12.050;2023-03-14T10:35:17;95571.38;;;11.58;61.82
75008;BME280;63554;48.940;12.050;2023-03-14T10:39:27;95563.53;;;11.82;60.63
75008;BME280;63554;48.940;12.050;2023-03-14T10:43:32;95571.13;;;11.80;59.66
75008;BME280;63554;48.940;12.050;2023-03-14T10:47:48;95575.72;;;11.54;61.41
75008;BME280;63554;48.940;12.050;2023-03-14T10:51:52;95574.84;;;11.23;61.50
75008;BME280;63554;48.940;12.050;2023-03-14T10:55:55;95569.94;;;11.04;61.02
75008;BME280;63554;48.940;12.050;2023-03-14T10:59:58;95572.69;;;11.20;60.68
75008;BME280;63554;48.940;12.050;2023-03-14T11:04:10;95566.47;;;11.24;60.75
75008;BME280;63554;48.940;12.050;2023-03-14T11:08:21;95572.66;;;11.15;60.68
75008;BME280;63554;48.940;12.050;2023-03-14T11:12:41;95570.50;;;11.06;61.12
75008;BME280;63554;48.940;12.050;2023-03-14T11:16:53;95568.88;;;11.05;61.79
75008;BME280;63554;48.940;12.050;2023-03-14T11:21:02;95573.47;;;11.00;62.22
75008;BME280;63554;48.940;12.050;2023-03-14T11:25:20;95567.22;;;10.94;62.30
75008;BME280;63554;48.940;12.050;2023-03-14T11:29:29;95572.09;;;10.92;62.84
75008;BME280;63554;48.940;12.050;2023-03-14T11:33:37;95565.84;;;10.86;62.13
75008;BME280;63554;48.940;12.050;2023-03-14T11:37:44;95566.09;;;10.85;62.43
75008;BME280;63554;48.940;12.050;2023-03-14T11:41:52;95568.00;;;10.89;62.63
75008;BME280;63554;48.940;12.050;2023-03-14T11:46:00;95565.06;;;10.96;62.43
75008;BME280;63554;48.940;12.050;2023-03-14T11:50:08;95556.94;;;11.01;62.68
75008;BME280;63554;48.940;12.050;2023-03-14T11:54:20;95550.22;;;11.24;62.14
75008;BME280;63554;48.940;12.050;2023-03-14T11:58:29;95546.47;;;11.66;60.47
75008;BME280;63554;48.940;12.050;2023-03-14T12:02:41;95534.94;;;12.52;58.40
75008;BME280;63554;48.940;12.050;2023-03-14T12:06:50;95531.72;;;13.04;55.83
75008;BME280;63554;48.940;12.050;2023-03-14T12:10:55;95525.50;;;13.43;55.93
75008;BME280;63554;48.940;12.050;2023-03-14T12:15:04;95527.00;;;13.94;53.42
75008;BME280;63554;48.940;12.050;2023-03-14T12:19:24;95522.34;;;13.26;54.53
75008;BME280;63554;48.940;12.050;2023-03-14T12:23:35;95521.78;;;12.79;56.98
75008;BME280;63554;48.940;12.050;2023-03-14T12:27:49;95514.81;;;12.63;56.78
75008;BME280;63554;48.940;12.050;2023-03-14T12:32:23;95497.88;;;12.86;57.09
75008;BME280;63554;48.940;12.050;2023-03-14T12:36:48;95486.31;;;12.65;56.54
75008;BME280;63554;48.940;12.050;2023-03-14T12:40:59;95476.03;;;12.62;56.80
75008;BME280;63554;48.940;12.050;2023-03-14T12:45:15;95489.41;;;12.38;57.75
75008;BME280;63554;48.940;12.050;2023-03-14T12:49:31;95498.38;;;12.29;57.46
75008;BME280;63554;48.940;12.050;2023-03-14T12:53:49;95480.25;;;12.29;57.01
75008;BME280;63554;48.940;12.050;2023-03-14T12:58:03;95486.47;;;12.24;57.54
75008;BME280;63554;48.940;12.050;2023-03-14T13:02:20;95480.25;;;12.29;57.58
75008;BME280;63554;48.940;12.050;2023-03-14T13:06:48;95481.09;;;12.19;57.38
75008;BME280;63554;48.940;12.050;2023-03-14T13:10:53;95481.91;;;12.15;57.39
75008;BME280;63554;48.940;12.050;2023-03-14T13:14:58;95484.38;;;12.01;57.15
75008;BME280;63554;48.940;12.050;2023-03-14T13:19:06;95491.69;;;11.95;57.39
75008;BME280;63554;48.940;12.050;2023-03-14T13:23:23;95496.31;;;11.90;57.33
75008;BME280;63554;48.940;12.050;2023-03-14T13:27:26;95498.75;;;11.91;57.62
75008;BME280;63554;48.940;12.050;2023-03-14T13:31:29;95487.63;;;12.08;57.25
75008;BME280;63554;48.940;12.050;2023-03-14T13:35:39;95483.00;;;13.18;54.77
75008;BME280;63554;48.940;12.050;2023-03-14T13:39:49;95493.91;;;12.63;54.99
75008;BME280;63554;48.940;12.050;2023-03-14T13:44:00;95484.50;;;12.51;56.36
75008;BME280;63554;48.940;12.050;2023-03-14T13:48:04;95488.06;;;12.41;56.37
75008;BME280;63554;48.940;12.050;2023-03-14T13:52:22;95508.97;;;12.30;56.57
75008;BME280;63554;48.940;12.050;2023-03-14T13:56:32;95534.00;;;11.91;61.51
75008;BME280;63554;48.940;12.050;2023-03-14T14:00:35;95549.41;;;11.24;65.28
75008;BME280;63554;48.940;12.050;2023-03-14T14:04:37;95580.66;;;10.74;68.43
75008;BME280;63554;48.940;12.050;2023-03-14T14:08:41;95597.03;;;10.41;71.97
75008;BME280;63554;48.940;12.050;2023-03-14T14:12:53;95603.56;;;10.13;73.91
75008;BME280;63554;48.940;12.050;2023-03-14T14:17:00;95606.75;;;10.05;74.64
75008;BME280;63554;48.940;12.050;2023-03-14T14:21:13;95605.31;;;9.92;75.45
75008;BME280;63554;48.940;12.050;2023-03-14T14:25:17;95624.09;;;9.77;76.81
75008;BME280;63554;48.940;12.050;2023-03-14T14:29:29;95634.78;;;9.61;79.44
75008;BME280;63554;48.940;12.050;2023-03-14T14:33:39;95645.00;;;9.32;80.83
75008;BME280;63554;48.940;12.050;2023-03-14T14:37:44;95649.88;;;9.08;82.30
75008;BME280;63554;48.940;12.050;2023-03-14T14:41:48;95645.44;;;8.97;83.85
75008;BME280;63554;48.940;12.050;2023-03-14T14:46:00;95656.66;;;8.88;83.60
75008;BME280;63554;48.940;12.050;2023-03-14T14:50:26;95659.53;;;8.82;83.85
75008;BME280;63554;48.940;12.050;2023-03-14T14:54:38;95663.56;;;8.79;84.29
75008;BME280;63554;48.940;12.050;2023-03-14T14:58:45;95674.34;;;8.79;84.82
75008;BME280;63554;48.940;12.050;2023-03-14T15:03:00;95676.00;;;8.80;84.73
75008;BME280;63554;48.940;12.050;2023-03-14T15:07:04;95691.66;;;8.83;84.26
75008;BME280;63554;48.940;12.050;2023-03-14T15:11:09;95710.50;;;8.78;84.45
75008;BME280;63554;48.940;12.050;2023-03-14T15:15:18;95718.81;;;8.77;81.48
75008;BME280;63554;48.940;12.050;2023-03-14T15:19:24;95700.09;;;8.70;82.53
75008;BME280;63554;48.940;12.050;2023-03-14T15:23:27;95700.78;;;8.60;81.81
75008;BME280;63554;48.940;12.050;2023-03-14T15:27:31;95718.19;;;8.52;81.55
75008;BME280;63554;48.940;12.050;2023-03-14T15:31:34;95730.25;;;8.45;82.95
75008;BME280;63554;48.940;12.050;2023-03-14T15:35:39;95768.69;;;8.23;84.31
75008;BME280;63554;48.940;12.050;2023-03-14T15:39:43;95786.94;;;8.04;81.40
75008;BME280;63554;48.940;12.050;2023-03-14T15:43:46;95858.84;;;7.75;77.25
75008;BME280;63554;48.940;12.050;2023-03-14T15:47:49;95845.81;;;7.43;77.90
75008;BME280;63554;48.940;12.050;2023-03-14T15:51:53;95865.03;;;7.35;76.70
75008;BME280;63554;48.940;12.050;2023-03-14T15:55:58;95878.59;;;7.28;73.13
75008;BME280;63554;48.940;12.050;2023-03-14T16:00:01;95898.81;;;7.43;74.78
75008;BME280;63554;48.940;12.050;2023-03-14T16:04:05;95895.19;;;7.49;72.89
75008;BME280;63554;48.940;12.050;2023-03-14T16:08:09;95910.88;;;7.40;73.80
75008;BME280;63554;48.940;12.050;2023-03-14T16:12:12;95923.28;;;7.18;73.17
75008;BME280;63554;48.940;12.050;2023-03-14T16:16:15;95939.28;;;7.12;73.89
75008;BME280;63554;48.940;12.050;2023-03-14T16:20:18;95933.19;;;7.05;73.60
75008;BME280;63554;48.940;12.050;2023-03-14T16:24:24;95951.56;;;6.97;73.63
75008;BME280;63554;48.940;12.050;2023-03-14T16:28:26;95960.44;;;6.97;72.30
75008;BME280;63554;48.940;12.050;2023-03-14T16:32:29;95974.13;;;6.96;70.56
75008;BME280;63554;48.940;12.050;2023-03-14T16:36:32;95986.97;;;6.93;70.16
75008;BME280;63554;48.940;12.050;2023-03-14T16:40:37;95997.13;;;6.91;68.05
75008;BME280;63554;48.940;12.050;2023-03-14T16:44:40;96021.75;;;7.07;64.86
75008;BME280;63554;48.940;12.050;2023-03-14T16:48:43;96025.06;;;7.44;62.28
75008;BME280;63554;48.940;12.050;2023-03-14T16:52:46;96038.72;;;7.19;61.54
75008;BME280;63554;48.940;12.050;2023-03-14T16:56:51;96061.88;;;7.08;60.84
75008;BME280;63554;48.940;12.050;2023-03-14T17:00:54;96071.78;;;6.96;59.27
75008;BME280;63554;48.940;12.050;2023-03-14T17:04:58;96063.34;;;6.92;57.70
75008;BME280;63554;48.940;12.050;2023-03-14T17:09:01;96083.66;;;6.88;57.29
75008;BME280;63554;48.940;12.050;2023-03-14T17:13:06;96100.41;;;6.72;58.51
75008;BME280;63554;48.940;12.050;2023-03-14T17:17:10;96120.66;;;6.75;58.96
75008;BME280;63554;48.940;12.050;2023-03-14T17:21:12;96137.56;;;6.63;57.67
75008;BME280;63554;48.940;12.050;2023-03-14T17:25:15;96148.38;;;6.57;57.00
75008;BME280;63554;48.940;12.050;2023-03-14T17:29:19;96153.66;;;6.45;57.94
75008;BME280;63554;48.940;12.050;2023-03-14T17:33:22;96171.44;;;6.46;57.12
75008;BME280;63554;48.940;12.050;2023-03-14T17:37:25;96180.59;;;6.38;57.56
75008;BME280;63554;48.940;12.050;2023-03-14T17:41:28;96195.38;;;6.29;56.93
75008;BME280;63554;48.940;12.050;2023-03-14T17:45:33;96217.09;;;6.27;56.28
75008;BME280;63554;48.940;12.050;2023-03-14T17:49:35;96228.06;;;6.26;56.56
75008;BME280;63554;48.940;12.050;2023-03-14T17:53:39;96223.19;;;6.16;57.42
75008;BME280;63554;48.940;12.050;2023-03-14T17:57:41;96247.16;;;6.18;56.95
75008;BME280;63554;48.940;12.050;2023-03-14T18:01:46;96255.03;;;6.12;56.47
75008;BME280;63554;48.940;12.050;2023-03-14T18:05:49;96255.84;;;6.13;56.64
75008;BME280;63554;48.940;12.050;2023-03-14T18:09:52;96265.38;;;6.09;56.31
75008;BME280;63554;48.940;12.050;2023-03-14T18:13:55;96282.91;;;6.11;55.55
75008;BME280;63554;48.940;12.050;2023-03-14T18:17:59;96293.25;;;6.14;55.72
75008;BME280;63554;48.940;12.050;2023-03-14T18:22:02;96293.31;;;6.08;55.68
75008;BME280;63554;48.940;12.050;2023-03-14T18:26:05;96295.13;;;6.07;55.42
75008;BME280;63554;48.940;12.050;2023-03-14T18:30:11;96321.56;;;6.10;55.35
75008;BME280;63554;48.940;12.050;2023-03-14T18:34:16;96332.78;;;6.01;56.11
75008;BME280;63554;48.940;12.050;2023-03-14T18:38:19;96331.13;;;6.00;56.12
75008;BME280;63554;48.940;12.050;2023-03-14T18:42:22;96329.94;;;5.89;56.13
75008;BME280;63554;48.940;12.050;2023-03-14T18:46:24;96341.16;;;5.79;56.84
75008;BME280;63554;48.940;12.050;2023-03-14T18:50:30;96341.41;;;5.71;57.11
75008;BME280;63554;48.940;12.050;2023-03-14T18:54:33;96357.91;;;5.68;57.63
75008;BME280;63554;48.940;12.050;2023-03-14T18:58:36;96362.72;;;5.59;58.11
75008;BME280;63554;48.940;12.050;2023-03-14T19:02:39;96368.50;;;5.56;57.44
75008;BME280;63554;48.940;12.050;2023-03-14T19:06:43;96371.00;;;5.51;58.03
75008;BME280;63554;48.940;12.050;2023-03-14T19:10:46;96380.72;;;5.45;58.58
75008;BME280;63554;48.940;12.050;2023-03-14T19:14:49;96389.19;;;5.42;58.82
75008;BME280;63554;48.940;12.050;2023-03-14T19:18:53;96391.91;;;5.35;59.31
75008;BME280;63554;48.940;12.050;2023-03-14T19:22:57;96394.59;;;5.22;60.20
75008;BME280;63554;48.940;12.050;2023-03-14T19:27:00;96402.44;;;5.17;60.25
75008;BME280;63554;48.940;12.050;2023-03-14T19:31:04;96417.91;;;5.15;60.37
75008;BME280;63554;48.940;12.050;2023-03-14T19:35:07;96415.25;;;5.08;60.71
75008;BME280;63554;48.940;12.050;2023-03-14T19:39:11;96423.72;;;5.05;60.81
75008;BME280;63554;48.940;12.050;2023-03-14T19:43:14;96425.38;;;5.06;60.95
75008;BME280;63554;48.940;12.050;2023-03-14T19:47:17;96435.47;;;5.18;59.96
75008;BME280;63554;48.940;12.050;2023-03-14T19:51:22;96434.88;;;5.15;59.97
75008;BME280;63554;48.940;12.050;2023-03-14T19:55:27;96447.44;;;5.15;60.20
75008;BME280;63554;48.940;12.050;2023-03-14T19:59:30;96451.34;;;5.12;60.52
75008;BME280;63554;48.940;12.050;2023-03-14T20:03:33;96461.06;;;5.07;61.03
75008;BME280;63554;48.940;12.050;2023-03-14T20:07:37;96456.53;;;5.01;61.29
75008;BME280;63554;48.940;12.050;2023-03-14T20:11:41;96471.38;;;4.97;61.75
75008;BME280;63554;48.940;12.050;2023-03-14T20:15:44;96479.19;;;4.91;61.92
75008;BME280;63554;48.940;12.050;2023-03-14T20:19:47;96474.03;;;4.83;62.42
75008;BME280;63554;48.940;12.050;2023-03-14T20:23:50;96475.88;;;4.76;62.06
75008;BME280;63554;48.940;12.050;2023-03-14T20:27:54;96487.66;;;4.75;62.81
75008;BME280;63554;48.940;12.050;2023-03-14T20:31:57;96484.94;;;4.68;63.29
75008;BME280;63554;48.940;12.050;2023-03-14T20:36:00;96484.53;;;4.65;63.21
75008;BME280;63554;48.940;12.050;2023-03-14T20:40:05;96487.00;;;4.60;62.90
75008;BME280;63554;48.940;12.050;2023-03-14T20:44:11;96490.88;;;4.50;63.82
75008;BME280;63554;48.940;12.050;2023-03-14T20:48:14;96493.38;;;4.45;64.07
75008;BME280;63554;48.940;12.050;2023-03-14T20:52:17;96489.84;;;4.38;64.32
75008;BME280;63554;48.940;12.050;2023-03-14T20:56:20;96498.69;;;4.32;64.26
75008;BME280;63554;48.940;12.050;2023-03-14T21:00:25;96500.13;;;4.28;64.45
75008;BME280;63554;48.940;12.050;2023-03-14T21:04:27;96499.44;;;4.19;64.92
75008;BME280;63554;48.940;12.050;2023-03-14T21:08:30;96496.34;;;4.15;65.33
75008;BME280;63554;48.940;12.050;2023-03-14T21:12:33;96507.72;;;4.18;65.61
75008;BME280;63554;48.940;12.050;2023-03-14T21:16:37;96508.28;;;4.13;66.14
75008;BME280;63554;48.940;12.050;2023-03-14T21:20:42;96510.34;;;4.11;65.93
75008;BME280;63554;48.940;12.050;2023-03-14T21:24:45;96519.19;;;4.11;65.90
75008;BME280;63554;48.940;12.050;2023-03-14T21:28:48;96518.78;;;4.08;66.02
75008;BME280;63554;48.940;12.050;2023-03-14T21:32:52;96513.19;;;4.03;66.46